Time;durP1;ratioP1;P1;durP2;ratioP2;P2;SDS_P1;SDS_P2;PMS_P1;PMS_P2;Temp;Humidity;BMP_temperature;BMP_pressure;BME280_temperature;BME280_humidity;BME280_pressure;Samples;Min_cycle;Max_cycle;Signal;HPM_P1;HPM_P2
2021/12/02 00:09:40;;;;;;;0.63;0.10;;;4.60;99.90;;;;;;20664169;28;20384;-45
2021/12/02 00:30:02;;;;;;;1.67;1.58;;;4.20;99.90;;;;;;20664202;28;20045;-45
2021/12/02 00:40:07;;;;;;;0.10;0.00;;;3.90;99.90;;;;;;20660178;28;20070;-45
2021/12/02 00:50:09;;;;;;;0.00;0.00;;;3.70;99.90;;;;;;20658593;28;20065;-45
2021/12/02 01:00:11;;;;;;;0.65;0.10;;;4.10;99.90;;;;;;20660685;28;20053;-45
2021/12/02 01:10:19;;;;;;;0.17;0.15;;;4.30;99.90;;;;;;20660217;28;20034;-45
2021/12/02 01:20:21;;;;;;;0.10;0.05;;;4.20;99.90;;;;;;20655589;28;20049;-45
2021/12/02 01:30:24;;;;;;;3.55;0.20;;;4.10;99.90;;;;;;20658950;28;20040;-45
2021/12/02 01:40:27;;;;;;;4.28;0.10;;;4.00;99.90;;;;;;20658943;28;20442;-46
2021/12/02 01:50:29;;;;;;;0.10;0.03;;;4.00;99.90;;;;;;20654269;28;20049;-45
2021/12/02 02:00:33;;;;;;;2.67;0.10;;;4.00;99.90;;;;;;20626084;28;20053;-45
2021/12/02 02:10:39;;;;;;;1.85;0.20;;;4.00;99.90;;;;;;20646496;28;20406;-45
2021/12/02 02:20:52;;;;;;;0.30;0.10;;;4.10;99.90;;;;;;20642618;28;21792;-45
2021/12/02 02:30:53;;;;;;;4.30;0.20;;;4.20;99.90;;;;;;20633489;28;20046;-45
2021/12/02 02:40:56;;;;;;;5.78;0.30;;;4.10;99.90;;;;;;20643978;28;20046;-45
2021/12/02 02:50:58;;;;;;;0.20;0.00;;;4.00;99.90;;;;;;20651485;28;20045;-45
2021/12/02 03:11:20;;;;;;;0.35;0.10;;;3.90;99.90;;;;;;20641699;28;20041;-45
2021/12/02 03:21:23;;;;;;;0.38;0.05;;;4.00;99.90;;;;;;20637861;28;20053;-45
2021/12/02 03:31:25;;;;;;;0.65;0.10;;;4.10;99.90;;;;;;20639551;28;20038;-46
2021/12/02 03:41:26;;;;;;;0.25;0.10;;;3.90;99.90;;;;;;20642295;28;20064;-45
2021/12/02 03:51:28;;;;;;;1.08;0.10;;;3.70;99.90;;;;;;20652750;28;20045;-45
2021/12/02 04:01:36;;;;;;;10.65;0.88;;;3.70;99.90;;;;;;20656642;28;20037;-45
2021/12/02 04:11:42;;;;;;;0.00;0.00;;;3.80;99.90;;;;;;20652321;28;20138;-45
2021/12/02 04:21:44;;;;;;;0.00;0.00;;;3.60;99.90;;;;;;20647439;28;20042;-45
2021/12/02 04:31:46;;;;;;;0.32;0.10;;;3.60;99.90;;;;;;20650022;28;20046;-45
2021/12/02 04:41:50;;;;;;;0.73;0.00;;;3.40;99.90;;;;;;20653282;28;20048;-45
2021/12/02 04:51:51;;;;;;;0.25;0.05;;;3.40;99.90;;;;;;20651854;28;20679;-46
2021/12/02 05:01:52;;;;;;;0.03;0.00;;;3.40;99.90;;;;;;20648045;28;20430;-45
2021/12/02 05:11:53;;;;;;;0.73;0.10;;;3.30;99.90;;;;;;20646806;28;20042;-45
2021/12/02 05:21:54;;;;;;;0.57;0.10;;;3.00;99.90;;;;;;20643090;28;20046;-45
2021/12/02 05:31:55;;;;;;;0.32;0.10;;;3.00;99.90;;;;;;20642310;28;20053;-45
2021/12/02 05:41:57;;;;;;;1.55;0.10;;;3.10;99.90;;;;;;20642365;28;20149;-45
2021/12/02 05:51:58;;;;;;;0.25;0.08;;;3.30;99.90;;;;;;20643198;28;20026;-45
2021/12/02 06:01:59;;;;;;;2.75;0.55;;;3.30;99.90;;;;;;20644933;28;20042;-45
2021/12/02 06:12:01;;;;;;;0.10;0.00;;;3.20;99.90;;;;;;20639102;28;20073;-45
2021/12/02 06:22:03;;;;;;;0.88;0.15;;;3.10;99.90;;;;;;20643830;28;20042;-45
2021/12/02 06:32:06;;;;;;;0.00;0.00;;;2.90;99.90;;;;;;20638824;28;20041;-45
2021/12/02 06:42:08;;;;;;;0.20;0.10;;;3.10;99.90;;;;;;20643123;28;20536;-45
2021/12/02 06:52:12;;;;;;;2.10;0.30;;;3.20;99.90;;;;;;20638021;28;20034;-45
2021/12/02 07:02:13;;;;;;;1.95;0.10;;;3.10;99.90;;;;;;20646714;28;20042;-45
2021/12/02 07:12:14;;;;;;;1.27;0.30;;;2.90;99.90;;;;;;20643324;28;21095;-45
2021/12/02 07:22:15;;;;;;;0.00;0.00;;;2.90;99.90;;;;;;20648857;28;20730;-45
2021/12/02 07:32:17;;;;;;;0.00;0.00;;;2.90;99.90;;;;;;20654099;28;20149;-46
2021/12/02 07:42:18;;;;;;;1.23;0.30;;;3.00;99.90;;;;;;20656947;28;21210;-46
2021/12/02 07:52:23;;;;;;;0.30;0.05;;;3.20;99.90;;;;;;20655341;28;20046;-45
2021/12/02 08:02:28;;;;;;;0.25;0.08;;;3.30;99.90;;;;;;20650304;28;20075;-46
2021/12/02 08:12:29;;;;;;;0.80;0.30;;;3.20;99.90;;;;;;20655027;28;20034;-46
2021/12/02 08:22:32;;;;;;;0.17;0.10;;;3.10;99.90;;;;;;20652647;28;20050;-45
2021/12/02 08:32:36;;;;;;;0.38;0.20;;;3.10;99.90;;;;;;20611816;28;20038;-45
2021/12/02 08:42:38;;;;;;;0.25;0.05;;;3.30;99.90;;;;;;20646282;28;20057;-45
2021/12/02 08:52:40;;;;;;;5.32;0.38;;;3.30;99.90;;;;;;20647918;28;20034;-45
2021/12/02 09:02:41;;;;;;;0.08;0.08;;;3.30;99.90;;;;;;20632787;28;20041;-45
2021/12/02 09:12:45;;;;;;;0.20;0.10;;;3.30;99.90;;;;;;20654565;28;20494;-45
2021/12/02 09:22:47;;;;;;;0.17;0.08;;;3.30;99.90;;;;;;20650358;28;20041;-45
2021/12/02 09:32:48;;;;;;;0.52;0.13;;;3.40;99.90;;;;;;20650399;28;20446;-45
2021/12/02 09:42:49;;;;;;;0.22;0.10;;;3.40;99.90;;;;;;20648619;28;20053;-46
2021/12/02 09:52:51;;;;;;;0.65;0.10;;;3.10;99.90;;;;;;20642695;28;20034;-46
2021/12/02 10:03:00;;;;;;;0.30;0.10;;;2.90;99.90;;;;;;20645547;28;20050;-45
2021/12/02 10:13:32;;;;;;;0.50;0.28;;;2.90;99.90;;;;;;20648080;28;20046;-44
2021/12/02 10:23:43;;;;;;;0.70;0.20;;;3.50;99.90;;;;;;20636963;28;20046;-45
2021/12/02 10:33:49;;;;;;;0.30;0.10;;;3.70;99.90;;;;;;20646554;28;20046;-47
2021/12/02 10:44:17;;;;;;;0.30;0.10;;;3.50;99.90;;;;;;20649714;28;20046;-46
2021/12/02 10:54:32;;;;;;;0.53;0.20;;;3.00;99.90;;;;;;20656682;28;20041;-45
2021/12/02 11:04:38;;;;;;;0.57;0.30;;;3.00;99.90;;;;;;20673540;28;20538;-45
2021/12/02 11:14:50;;;;;;;0.57;0.17;;;3.10;99.90;;;;;;20671226;28;20041;-45
2021/12/02 11:24:51;;;;;;;1.52;0.30;;;3.20;99.90;;;;;;20670971;28;21454;-44
2021/12/02 11:35:12;;;;;;;0.52;0.22;;;3.30;99.90;;;;;;20680732;28;20033;-44
2021/12/02 11:45:15;;;;;;;1.27;0.47;;;3.50;99.90;;;;;;20680732;28;20046;-45
2021/12/02 11:55:22;;;;;;;1.70;0.60;;;3.80;99.90;;;;;;20681129;28;20064;-45
2021/12/02 12:05:29;;;;;;;1.75;0.60;;;4.20;99.90;;;;;;20670726;28;20057;-45
2021/12/02 12:15:39;;;;;;;2.03;1.20;;;4.90;99.90;;;;;;20618546;28;20557;-45
2021/12/02 12:25:41;;;;;;;1.13;0.43;;;6.00;99.90;;;;;;20657859;28;21154;-44
2021/12/02 12:46:07;;;;;;;1.05;0.30;;;6.40;99.90;;;;;;20658103;28;20541;-44
2021/12/02 12:56:13;;;;;;;0.47;0.10;;;6.50;99.90;;;;;;20663390;28;20066;-45
2021/12/02 13:06:22;;;;;;;1.92;0.40;;;7.10;99.90;;;;;;20660341;28;20659;-45
2021/12/02 13:16:23;;;;;;;1.25;0.20;;;7.40;99.90;;;;;;20658090;28;20360;-44
2021/12/02 13:26:28;;;;;;;2.55;0.57;;;6.70;99.90;;;;;;20657589;28;20531;-44
2021/12/02 13:36:38;;;;;;;1.92;0.20;;;6.10;99.90;;;;;;20660806;28;20137;-44
2021/12/02 13:46:45;;;;;;;0.60;0.50;;;5.70;99.90;;;;;;20656395;28;20049;-44
2021/12/02 13:56:46;;;;;;;;;;;5.40;99.90;;;;;;20653072;28;20397;-44
2021/12/02 14:06:47;;;;;;;0.52;0.13;;;5.40;99.90;;;;;;20653976;28;19925;-45
2021/12/02 14:16:48;;;;;;;1.70;0.20;;;5.50;99.90;;;;;;20654292;28;20420;-45
2021/12/02 14:26:50;;;;;;;0.10;0.00;;;5.60;99.90;;;;;;20642961;28;20053;-44
2021/12/02 14:36:52;;;;;;;0.13;0.05;;;5.40;99.90;;;;;;20639599;28;20031;-45
2021/12/02 14:46:57;;;;;;;0.08;0.00;;;5.00;99.90;;;;;;20651580;28;20042;-44
2021/12/02 14:57:06;;;;;;;4.40;0.40;;;4.70;99.90;;;;;;20648849;28;20038;-44
2021/12/02 15:07:12;;;;;;;0.20;0.00;;;4.80;99.90;;;;;;20653049;28;20046;-44
2021/12/02 15:17:16;;;;;;;0.00;0.00;;;4.50;99.90;;;;;;20653699;28;20042;-45
2021/12/02 15:27:17;;;;;;;0.98;0.10;;;4.00;99.90;;;;;;20641432;28;20034;-44
2021/12/02 15:37:19;;;;;;;0.10;0.00;;;3.70;99.90;;;;;;20652981;28;20486;-44
2021/12/02 15:47:20;;;;;;;0.20;0.03;;;3.60;99.90;;;;;;20663897;28;20046;-44
2021/12/02 15:57:21;;;;;;;1.75;0.05;;;3.40;99.90;;;;;;20657172;28;20701;-44
2021/12/02 16:07:51;;;;;;;0.47;0.20;;;3.30;99.90;;;;;;20665325;28;20478;-44
2021/12/02 16:17:44;;;;;;;0.43;0.17;;;3.20;99.90;;;;;;20661857;28;20399;-44
2021/12/02 16:27:45;;;;;;;0.13;0.05;;;3.40;99.90;;;;;;20664137;28;20038;-44
2021/12/02 16:37:46;;;;;;;0.25;0.17;;;3.50;99.90;;;;;;20655678;28;20505;-44
2021/12/02 16:47:48;;;;;;;1.48;0.13;;;3.70;99.90;;;;;;20652977;28;20134;-44
2021/12/02 16:57:51;;;;;;;4.88;0.17;;;3.60;99.90;;;;;;20656139;28;20031;-44
2021/12/02 17:07:57;;;;;;;0.40;0.20;;;3.50;99.90;;;;;;20654793;28;20046;-45
2021/12/02 17:18:00;;;;;;;5.00;0.28;;;3.30;99.90;;;;;;20652018;28;20470;-44
2021/12/02 17:28:03;;;;;;;0.20;0.10;;;3.10;99.90;;;;;;20649688;28;20302;-44
2021/12/02 17:38:06;;;;;;;1.30;0.30;;;2.90;99.90;;;;;;20646647;28;20035;-44
2021/12/02 17:48:09;;;;;;;1.80;0.40;;;2.80;99.90;;;;;;20646795;28;20050;-44
2021/12/02 17:58:10;;;;;;;3.58;0.32;;;2.70;99.90;;;;;;20641403;28;20030;-45
2021/12/02 18:08:13;;;;;;;1.13;0.35;;;2.60;99.90;;;;;;20647446;28;20667;-44
2021/12/02 18:18:15;;;;;;;0.95;0.45;;;2.30;99.90;;;;;;20651093;28;20042;-44
2021/12/02 18:28:17;;;;;;;0.45;0.13;;;2.20;99.90;;;;;;20645319;28;20050;-44
2021/12/02 18:38:18;;;;;;;2.10;0.73;;;2.10;99.90;;;;;;20644231;28;20034;-44
2021/12/02 18:48:19;;;;;;;2.42;0.55;;;2.20;99.90;;;;;;20642947;28;20084;-44
2021/12/02 18:58:20;;;;;;;2.53;0.73;;;2.10;99.90;;;;;;20650999;28;20065;-44
2021/12/02 19:29:08;;;;;;;0.82;0.30;;;1.80;99.90;;;;;;20678628;28;20584;-44
2021/12/02 19:39:10;;;;;;;2.47;0.52;;;1.70;99.90;;;;;;20677178;28;20043;-45
2021/12/02 19:49:12;;;;;;;0.90;0.55;;;1.70;99.90;;;;;;20675967;28;20047;-45
2021/12/02 19:59:13;;;;;;;1.80;1.15;;;1.60;99.90;;;;;;20678133;28;21372;-44
2021/12/02 20:09:15;;;;;;;0.75;0.47;;;1.50;99.90;;;;;;20681714;28;20041;-44
2021/12/02 20:19:26;;;;;;;2.53;0.70;;;1.40;99.90;;;;;;20663205;28;20048;-45
2021/12/02 20:29:27;;;;;;;1.45;0.52;;;1.40;99.90;;;;;;20680090;28;20034;-44
2021/12/02 20:39:29;;;;;;;3.00;0.93;;;1.50;99.90;;;;;;20676642;28;20045;-45
2021/12/02 20:49:43;;;;;;;2.67;1.50;;;1.50;99.90;;;;;;20676486;28;20042;-45
2021/12/02 20:59:45;;;;;;;3.35;0.68;;;1.50;99.90;;;;;;20678339;28;20367;-45
2021/12/02 21:09:47;;;;;;;3.22;0.90;;;1.50;99.90;;;;;;20663895;28;20502;-45
2021/12/02 21:19:48;;;;;;;4.00;0.77;;;1.70;99.90;;;;;;20673531;28;20049;-45
2021/12/02 21:29:52;;;;;;;1.88;0.95;;;1.60;99.90;;;;;;20669275;28;20026;-45
2021/12/02 21:39:55;;;;;;;2.40;1.00;;;1.70;99.90;;;;;;20622649;28;20034;-44
2021/12/02 21:49:56;;;;;;;2.95;1.38;;;1.70;99.90;;;;;;20636460;28;20038;-44
2021/12/02 22:00:05;;;;;;;4.10;1.40;;;1.80;99.90;;;;;;20651827;28;20053;-44
2021/12/02 22:10:14;;;;;;;10.80;1.52;;;1.80;99.90;;;;;;20654576;28;20030;-45
2021/12/02 22:20:16;;;;;;;4.03;1.30;;;1.80;99.90;;;;;;20652394;28;20691;-44
2021/12/02 22:30:18;;;;;;;6.07;1.48;;;1.80;99.90;;;;;;20651400;28;20060;-45
2021/12/02 22:40:22;;;;;;;3.25;1.30;;;1.80;99.90;;;;;;20649781;28;20542;-44
2021/12/02 22:50:23;;;;;;;3.95;1.77;;;1.80;99.90;;;;;;20652363;28;20053;-44
2021/12/02 23:00:36;;;;;;;3.38;1.67;;;1.80;99.90;;;;;;20659570;28;20042;-44
2021/12/02 23:10:39;;;;;;;3.45;1.30;;;1.80;99.90;;;;;;20655737;28;20042;-45
2021/12/02 23:20:40;;;;;;;5.55;2.17;;;1.80;99.90;;;;;;20660633;28;20042;-44
2021/12/02 23:30:48;;;;;;;2.65;1.27;;;1.90;99.90;;;;;;20657804;28;20044;-44
2021/12/02 23:40:52;;;;;;;2.63;1.40;;;1.90;99.90;;;;;;20655516;28;20650;-44
2021/12/02 23:50:54;;;;;;;5.05;1.90;;;1.90;99.90;;;;;;20636577;28;20042;-44
